Due to severe server failure at the provider, not all demo sites are operational. Will take some days to rebuilt everything.

Demonstration site - Click on the  for more information

This is an optional block. Switch it on/off in your settings-file: $SITE['bannerTop'] = false; or $SITE['bannerBottom'] = false;

You can display ads, any other important text or photo’s using text / html or PHP code.

You can place one or more at the top and or bottom and it can all be different for content / size .



Visit our other weather sites:

Template documentation
and downloads

And another site



Nearby METAR Reports

   
EBAW - Antwerp
Updated: 01-12-2021 09:20
Light Showers, Rain, Mostly Cloudy  
Light Showers, Rain, Mostly Cloudy  
   Wind: SW 22.2 km/h
Wind: SW 22.2 km/h
Temperature: 9°C
Wind Chill: 6°C
Dew Point: 7°C
Humidity: 87%
Barometer: 993 hPa
Clouds: Mostly Cloudy
Visibility: 9 km
Cloud details: Few Clouds 700 ft,
Mostly Cloudy 2400 ft,
Mostly Cloudy 3200 ft
EBAW 010820Z 22012KT 9000 -SHRA FEW007 BKN024 BKN032 09/07 Q0993 TEMPO 3500 SHRA
EBLG - Liège
Updated: 01-12-2021 09:20
Light Rain, Drizzle, Mostly Cloudy  
Light Rain, Drizzle, Mostly Cloudy  
   Wind: SSW 35.2 km/h
Wind: SSW 35.2 km/h
Temperature: 7°C
Wind Chill: 2°C
Dew Point: 6°C
Humidity: 93%
Barometer: 994 hPa
Clouds: Mostly Cloudy
Visibility: 6 km
Cloud details: Few Clouds 500 ft,
Partly Cloudy 700 ft,
Mostly Cloudy 1200 ft
EBLG 010820Z 20019KT 6000 -RADZ FEW005 SCT007 BKN012 07/06 Q0994 TEMPO 2500 RADZ BKN007
EBCV - Mons/Bergen
Updated: 01-12-2021 09:25
Overcast  
Overcast  
   Wind: SW 29.6 km/h
Wind: SW 29.6 km/h
Temperature: 9°C
Wind Chill: 6°C
Dew Point: 8°C
Humidity: 94%
Barometer: 994 hPa
Clouds: Overcast
Visibility: 5 km
Cloud details: Overcast 900 ft
EBCV 010825Z AUTO 23016KT 5000 OVC009/// 09/08 Q0994 GRN
EHBK - Maastricht
Updated: 01-12-2021 09:25
Light Rain, Mostly Cloudy  
Light Rain, Mostly Cloudy  
   Wind: SSW 42.6 km/h
Wind: SSW 42.6 km/h
Temperature: 8°C
Wind Chill: 3°C
Dew Point: 6°C
Humidity: 87%
Barometer: 994 hPa
Clouds: Mostly Cloudy
Visibility: More than 10 km
Cloud details: Few Clouds 200 ft,
Partly Cloudy 1200 ft,
Mostly Cloudy 1400 ft,
Few Clouds 1500 ft
EHBK 010825Z AUTO 21023KT 9999 -RA FEW002 SCT012 BKN014 FEW015CB 08/06 Q0994 TEMPO 4000 DZRA BKN009
ELLX - Luxemburg
Updated: 01-12-2021 09:20
Light Rain, Mostly Cloudy  
Light Rain, Mostly Cloudy  
   Wind: SSW 27.8 km/h
Wind: SSW 27.8 km/h
Temperature: 6°C
Wind Chill: 2°C
Dew Point: 5°C
Humidity: 93%
Barometer: 999 hPa
Clouds: Mostly Cloudy
Visibility: 8 km
Cloud details: Mostly Cloudy 500 ft
ELLX 010820Z 20015KT 8000 -RA BKN005 06/05 Q0999 TEMPO 24015G25KT RA
EBOS - Oostende
Updated: 01-12-2021 09:20
Mostly Cloudy  
Mostly Cloudy  
   Wind: WNW 40.7 km/h
Wind: WNW 40.7 km/h
Temperature: 9°C
Wind Chill: 4°C
Dew Point: 5°C
Humidity: 76%
Barometer: 994 hPa
Clouds: Mostly Cloudy
Visibility: More than 10 km
Cloud details: Partly Cloudy 2500 ft,
Mostly Cloudy 3500 ft
EBOS 010820Z 29022KT 9999 SCT025 BKN035 09/05 Q0994 TEMPO 29024G35KT

Script developed by  Saratoga-weather.org Adapted for the template by  Weerstation Leuven

This is an optional block. Switch it on/off in your settings-file: $SITE['bannerTop'] = false; or $SITE['bannerBottom'] = false;

You can display ads, any other important text or photo’s using text / html or PHP code.

You can place one or more at the top and or bottom and it can all be different for content / size .